createdAt,value
2022-12-19T13:40:11.992Z,0.50
2022-12-19T13:43:16.262Z,0.40
2022-12-19T13:45:53.567Z,0.40
2022-12-19T13:48:36.155Z,0.40
2022-12-19T13:51:09.475Z,0.50
2022-12-19T13:53:37.509Z,0.50
2022-12-19T13:56:12.444Z,0.50
2022-12-19T13:58:48.400Z,0.50
2022-12-19T14:01:27.082Z,0.50
2022-12-19T14:03:57.417Z,0.40
2022-12-19T14:06:44.383Z,0.30
2022-12-19T14:11:27.135Z,0.10
2022-12-19T14:13:45.953Z,0.10
2022-12-19T14:15:35.821Z,0.20
2022-12-19T14:18:44.286Z,-0.10
2022-12-19T14:22:04.872Z,-0.10
2022-12-19T14:24:32.460Z,-0.20
2022-12-19T14:28:20.906Z,-0.40
2022-12-19T14:30:28.525Z,-0.40
2022-12-19T14:33:46.229Z,-0.50
2022-12-19T14:36:16.031Z,-0.50
2022-12-19T14:39:26.900Z,-0.50
2022-12-19T14:42:01.781Z,-0.50
2022-12-19T14:52:51.981Z,-0.50
2022-12-19T14:54:07.108Z,-0.70
2022-12-19T14:54:07.517Z,-0.70
2022-12-19T14:54:48.467Z,-0.70
2022-12-19T14:56:54.216Z,-0.70
2022-12-19T14:59:06.375Z,-0.70
2022-12-19T15:01:37.140Z,-0.80
2022-12-19T15:04:52.104Z,-0.80
2022-12-19T15:07:12.213Z,-0.80
2022-12-19T15:10:58.786Z,-1.00
2022-12-19T15:14:50.664Z,-1.10
2022-12-19T15:16:06.346Z,-1.40
2022-12-19T15:18:34.392Z,-1.50
2022-12-19T15:21:04.531Z,-1.70
2022-12-19T15:23:32.192Z,-1.90
2022-12-19T15:26:06.983Z,-1.90
2022-12-19T15:28:56.316Z,-1.90
2022-12-19T15:31:38.691Z,-2.00
2022-12-19T15:34:48.322Z,-1.90
2022-12-19T15:37:13.376Z,-1.90
2022-12-19T15:39:41.892Z,-1.80
2022-12-19T15:42:26.330Z,-1.90
2022-12-19T15:44:58.031Z,-1.90
2022-12-19T15:47:36.880Z,-1.90
2022-12-19T15:50:32.337Z,-1.90
2022-12-19T15:53:02.050Z,-1.90
2022-12-19T15:55:30.901Z,-1.90
2022-12-19T15:58:05.488Z,-1.90
2022-12-19T16:00:36.727Z,-1.90
2022-12-19T16:05:52.879Z,-1.70
2022-12-19T16:08:25.330Z,-1.70
2022-12-19T16:11:01.071Z,-1.80
2022-12-19T16:13:35.527Z,-1.90
2022-12-19T16:16:12.790Z,-1.90
2022-12-19T16:18:42.917Z,-1.80
2022-12-19T16:21:19.761Z,-1.80
2022-12-19T16:23:48.178Z,-1.80
2022-12-19T16:26:28.883Z,-1.90
2022-12-19T16:28:56.645Z,-2.00
2022-12-19T16:31:26.230Z,-2.00
2022-12-19T16:33:54.084Z,-2.00
2022-12-19T16:36:22.480Z,-1.90
2022-12-19T16:38:50.394Z,-1.90
2022-12-19T16:41:25.150Z,-1.80
2022-12-19T16:43:52.947Z,-1.80
2022-12-19T16:46:23.613Z,-1.70
2022-12-19T16:48:51.329Z,-1.70
2022-12-19T16:51:27.803Z,-1.90
2022-12-19T16:53:58.939Z,-2.20
2022-12-19T16:56:56.398Z,-2.30
2022-12-19T16:59:41.361Z,-2.50
2022-12-19T17:02:51.886Z,-2.50
2022-12-19T17:05:25.369Z,-2.40
2022-12-19T17:07:54.101Z,-2.30
2022-12-19T17:10:27.727Z,-2.30
2022-12-19T17:12:56.821Z,-2.20
2022-12-19T17:15:24.280Z,-2.10
2022-12-19T17:17:53.718Z,-2.10
2022-12-19T17:20:25.173Z,-2.10
2022-12-19T17:22:53.302Z,-2.10
2022-12-19T17:25:29.673Z,-2.10
2022-12-19T17:27:57.222Z,-2.20
2022-12-19T17:30:24.826Z,-2.30
2022-12-19T17:32:54.689Z,-2.50
2022-12-19T17:35:28.312Z,-2.60
2022-12-19T17:37:57.272Z,-2.50
2022-12-19T17:40:29.521Z,-2.50
2022-12-19T17:42:58.435Z,-2.50
2022-12-19T17:45:28.322Z,-2.50
2022-12-19T17:48:02.885Z,-2.50
2022-12-19T17:50:37.537Z,-2.60
2022-12-19T17:53:05.720Z,-2.70
2022-12-19T17:55:33.516Z,-2.60
2022-12-19T17:58:01.333Z,-2.60
2022-12-19T18:00:32.010Z,-2.50
2022-12-19T18:03:05.168Z,-2.60
2022-12-19T18:05:35.920Z,-2.70
2022-12-19T18:08:06.358Z,-2.80
2022-12-19T18:10:34.316Z,-2.90
2022-12-19T18:13:02.055Z,-2.90
2022-12-19T18:15:30.444Z,-2.90
2022-12-19T18:18:01.013Z,-2.80
2022-12-19T18:20:32.781Z,-2.70
2022-12-19T18:23:01.477Z,-2.70
2022-12-19T18:25:32.657Z,-2.70
2022-12-19T18:28:00.342Z,-2.70
2022-12-19T18:30:27.924Z,-2.70
2022-12-19T18:32:58.164Z,-2.70
2022-12-19T18:35:35.343Z,-2.60
2022-12-19T18:38:08.675Z,-2.60
2022-12-19T18:40:36.074Z,-2.50
2022-12-19T18:43:04.299Z,-2.60
2022-12-19T18:45:38.187Z,-2.70
2022-12-19T18:48:08.488Z,-2.60
2022-12-19T18:50:36.079Z,-2.60
2022-12-19T18:53:11.321Z,-2.60
2022-12-19T18:55:38.921Z,-2.70
2022-12-19T18:58:06.498Z,-2.70
2022-12-19T19:00:35.619Z,-2.80
2022-12-19T19:03:06.611Z,-2.70
2022-12-19T19:05:39.058Z,-2.70
2022-12-19T19:08:19.162Z,-2.70
2022-12-19T19:10:53.981Z,-2.70
2022-12-19T19:13:24.357Z,-2.80
2022-12-19T19:15:59.970Z,-2.80
2022-12-19T19:18:41.301Z,-2.80
2022-12-19T19:21:12.286Z,-2.90
2022-12-19T19:23:47.445Z,-3.00
2022-12-19T19:26:15.931Z,-3.00
2022-12-19T19:28:48.601Z,-3.00
2022-12-19T19:31:26.587Z,-3.00
2022-12-19T19:34:03.210Z,-3.00
2022-12-19T19:36:36.153Z,-3.10
2022-12-19T19:39:05.387Z,-3.10
2022-12-19T19:41:34.705Z,-3.10
2022-12-19T19:44:02.280Z,-2.90
2022-12-19T19:46:30.845Z,-2.80
2022-12-19T19:48:59.507Z,-2.80
2022-12-19T19:51:28.811Z,-2.90
2022-12-19T19:53:56.621Z,-3.00
2022-12-19T19:56:24.130Z,-3.00
2022-12-19T19:58:52.535Z,-3.00
2022-12-19T20:01:21.325Z,-3.00
2022-12-19T20:03:49.555Z,-2.90
2022-12-19T20:06:17.998Z,-3.00
2022-12-19T20:08:46.943Z,-3.10
2022-12-19T20:11:14.836Z,-3.20
2022-12-19T20:13:42.360Z,-3.20
2022-12-19T20:16:12.462Z,-3.20
2022-12-19T20:18:40.712Z,-3.40
2022-12-19T20:21:13.184Z,-3.60
2022-12-19T20:23:43.297Z,-3.70
2022-12-19T20:26:13.366Z,-4.00
2022-12-19T20:28:47.855Z,-4.30
2022-12-19T20:31:21.200Z,-4.30
2022-12-19T20:33:50.465Z,-4.30
2022-12-19T20:36:23.364Z,-4.30
2022-12-19T20:38:51.683Z,-4.10
2022-12-19T20:41:19.910Z,-4.00
2022-12-19T20:43:48.522Z,-4.00
2022-12-19T20:46:21.577Z,-3.90
2022-12-19T20:48:50.296Z,-3.80
2022-12-19T20:51:19.594Z,-3.70
2022-12-19T20:53:48.563Z,-3.80
2022-12-19T20:56:18.833Z,-3.80
2022-12-19T20:58:46.883Z,-3.80
2022-12-19T21:01:17.592Z,-3.90
2022-12-19T21:03:45.891Z,-3.90
2022-12-19T21:06:21.208Z,-3.90
2022-12-19T21:08:48.807Z,-4.00
2022-12-19T21:11:16.651Z,-4.20
2022-12-19T21:13:44.482Z,-4.40
2022-12-19T21:16:15.064Z,-4.50
2022-12-19T21:18:43.714Z,-4.50
2022-12-19T21:21:17.128Z,-4.30
2022-12-19T21:23:44.928Z,-4.10
2022-12-19T21:26:12.864Z,-4.00
2022-12-19T21:28:40.688Z,-4.00
2022-12-19T21:31:17.320Z,-3.90
2022-12-19T21:33:46.003Z,-3.80
2022-12-19T21:36:19.239Z,-3.80
2022-12-19T21:38:53.331Z,-3.70
2022-12-19T21:41:23.992Z,-3.40
2022-12-19T21:43:53.902Z,-3.30
2022-12-19T21:46:25.145Z,-3.00
2022-12-19T21:48:54.972Z,-2.70
2022-12-19T21:51:25.343Z,-2.70
2022-12-19T21:53:55.552Z,-2.70
2022-12-19T21:56:27.214Z,-2.60
2022-12-19T21:58:58.723Z,-2.30
2022-12-19T22:01:26.923Z,-2.10
2022-12-19T22:04:02.774Z,-2.00
2022-12-19T22:06:32.442Z,-1.80
2022-12-19T22:09:01.005Z,-1.60
2022-12-19T22:11:31.424Z,-1.50
2022-12-19T22:14:00.522Z,-1.40
2022-12-19T22:16:29.024Z,-1.50
2022-12-19T22:18:56.708Z,-1.40
2022-12-19T22:21:25.448Z,-1.30
2022-12-19T22:23:58.109Z,-1.40
2022-12-19T22:26:31.197Z,-1.30
2022-12-19T22:29:00.271Z,-1.30
2022-12-19T22:31:32.925Z,-1.30
2022-12-19T22:34:06.693Z,-1.30
2022-12-19T22:36:35.991Z,-1.20
2022-12-19T22:39:05.935Z,-1.20
2022-12-19T22:41:34.805Z,-1.10
2022-12-19T22:44:03.675Z,-1.10
2022-12-19T22:46:34.642Z,-1.20
2022-12-19T22:49:05.735Z,-1.10
2022-12-19T22:51:37.233Z,-1.50
2022-12-19T22:54:05.626Z,-1.50
2022-12-19T22:56:34.653Z,-1.40
2022-12-19T22:59:06.442Z,-1.30
2022-12-19T23:01:37.235Z,-1.10
2022-12-19T23:04:06.663Z,-0.90
2022-12-19T23:06:36.941Z,-0.80
2022-12-19T23:09:07.055Z,-0.70
2022-12-19T23:11:39.536Z,-0.70
2022-12-19T23:14:08.828Z,-0.70
2022-12-19T23:16:36.434Z,-0.70
2022-12-19T23:19:05.298Z,-0.50
2022-12-19T23:21:32.967Z,-0.40
2022-12-19T23:24:01.131Z,-0.50
2022-12-19T23:26:35.351Z,-0.40
2022-12-19T23:29:12.406Z,-0.40
2022-12-19T23:31:45.693Z,-0.40
2022-12-19T23:34:16.054Z,-0.30
2022-12-19T23:37:10.359Z,-0.30
2022-12-19T23:39:34.255Z,-0.30
2022-12-19T23:42:01.781Z,-0.30
2022-12-19T23:44:29.616Z,-0.20
2022-12-19T23:47:03.045Z,-0.20
2022-12-19T23:49:33.448Z,-0.30
2022-12-19T23:52:01.924Z,-0.30
2022-12-19T23:54:29.756Z,-0.40
2022-12-19T23:56:57.286Z,-0.40
2022-12-19T23:59:24.776Z,-0.50
